Oxford, KS

6:39 PM CDT on August 31, 2016 (GMT -0500)
DeLaughter's House | | Change Station

Elev 1194 ft 37.28 °N, 97.18 °W | Updated 11 seconds ago

Scattered Clouds
Scattered Clouds
79.5 °F
Feels Like 82 °F
N
0.9
Wind Variable Wind from North
Gusts 2.5 mph

Today
High -- | Low -- °F
--% Chance of Precip.
Yesterday
High -- | Low -- °F
Precip. -- in
Pressure 30.03 in
Visibility 10.0 miles
Clouds Few 3500 ft
Scattered Clouds 8000 ft
Heat Index 82 °F
Dew Point 69 °F
Humidity 71%
Rainfall 0.20 in
Snow Depth Not available.
6:58 AM 7:58 PM
Waning Crescent, 0% visible
METAR KWLD 312254Z AUTO 05009KT 10SM FEW035 SCT080 27/22 A3006 RMK AO2 SLP169 T02720217
Pressure 30.03 in
Visibility 10.0 miles
Clouds Few 3500 ft
Scattered Clouds 8000 ft
Heat Index 82 °F
Dew Point 69 °F
Humidity 71%
Rainfall 0.20 in
Snow Depth Not available.
6:58 AM 7:58 PM
Waning Crescent, 0% visible
METAR KWLD 312254Z AUTO 05009KT 10SM FEW035 SCT080 27/22 A3006 RMK AO2 SLP169 T02720217

10-Day Weather Forecast

Almanac

Astronomy

Aug. 31, 2016 Rise Set
Actual Time
Civil Twilight
Nautical Twilight
Astronomical Twilight
Moon
Length of Visible Light
Length of Day
Tomorrow will be .
, % of the Moon is Illuminated

Today's Extremes

State Highs State Lows

Community

WunderPhotos

Upload Photos

1,936,215 photos uploaded!

WunderBlog® & News

Nearby

Air Quality

  Air Quality AQ Index Pollutant
Not available.

Snow Depth

Station Depth Elevation

Earthquake Activity

City Distance Mag. Time & Date
Minimum magnitude displayed is 2.5.

Coastal Water Temperatures

Place Temperature

Stations

Nearby Weather Stations

Station Location Temp. Windchill Dew Point Humidity Wind Precip. Elev Updated Type
                   

Watches & Warnings

There are currently no watches in effect.